sensor_id;sensor_type;location;lat;lon;timestamp;P1;durP1;ratioP1;P2;durP2;ratioP2
17482;SDS011;8858;52.308;20.994;2022-09-17T00:01:39;4.47;;;2.50;;
17482;SDS011;8858;52.308;20.994;2022-09-17T00:04:08;2.77;;;2.50;;
17482;SDS011;8858;52.308;20.994;2022-09-17T00:06:42;3.57;;;2.73;;
17482;SDS011;8858;52.308;20.994;2022-09-17T00:09:10;3.43;;;2.90;;
17482;SDS011;8858;52.308;20.994;2022-09-17T00:11:41;4.47;;;3.27;;
17482;SDS011;8858;52.308;20.994;2022-09-17T00:14:11;3.03;;;2.40;;
17482;SDS011;8858;52.308;20.994;2022-09-17T00:16:42;3.80;;;2.47;;
17482;SDS011;8858;52.308;20.994;2022-09-17T00:19:14;4.67;;;2.80;;
17482;SDS011;8858;52.308;20.994;2022-09-17T00:21:49;2.73;;;2.53;;
17482;SDS011;8858;52.308;20.994;2022-09-17T00:24:18;2.93;;;2.63;;
17482;SDS011;8858;52.308;20.994;2022-09-17T00:26:47;3.20;;;2.50;;
17482;SDS011;8858;52.308;20.994;2022-09-17T00:29:17;3.93;;;2.40;;
17482;SDS011;8858;52.308;20.994;2022-09-17T00:31:45;3.83;;;2.23;;
17482;SDS011;8858;52.308;20.994;2022-09-17T00:34:16;2.37;;;2.17;;
17482;SDS011;8858;52.308;20.994;2022-09-17T00:36:45;2.50;;;2.30;;
17482;SDS011;8858;52.308;20.994;2022-09-17T00:39:16;5.27;;;2.60;;
17482;SDS011;8858;52.308;20.994;2022-09-17T00:41:44;2.70;;;2.33;;
17482;SDS011;8858;52.308;20.994;2022-09-17T00:47:13;4.40;;;2.60;;
17482;SDS011;8858;52.308;20.994;2022-09-17T00:49:44;3.13;;;2.00;;
17482;SDS011;8858;52.308;20.994;2022-09-17T00:52:17;3.20;;;2.03;;
17482;SDS011;8858;52.308;20.994;2022-09-17T00:54:51;2.67;;;2.30;;
17482;SDS011;8858;52.308;20.994;2022-09-17T00:57:21;3.10;;;2.80;;
17482;SDS011;8858;52.308;20.994;2022-09-17T00:59:50;4.37;;;2.20;;
17482;SDS011;8858;52.308;20.994;2022-09-17T01:02:23;3.70;;;2.20;;
17482;SDS011;8858;52.308;20.994;2022-09-17T01:04:53;3.20;;;2.20;;
17482;SDS011;8858;52.308;20.994;2022-09-17T01:07:26;3.70;;;2.20;;
17482;SDS011;8858;52.308;20.994;2022-09-17T01:10:16;4.33;;;2.20;;
17482;SDS011;8858;52.308;20.994;2022-09-17T01:12:58;3.37;;;2.27;;
17482;SDS011;8858;52.308;20.994;2022-09-17T01:15:39;4.50;;;2.40;;
17482;SDS011;8858;52.308;20.994;2022-09-17T01:18:19;2.80;;;2.50;;
17482;SDS011;8858;52.308;20.994;2022-09-17T01:21:10;4.17;;;2.50;;
17482;SDS011;8858;52.308;20.994;2022-09-17T01:24:12;2.60;;;2.07;;
17482;SDS011;8858;52.308;20.994;2022-09-17T01:27:19;2.20;;;2.00;;
17482;SDS011;8858;52.308;20.994;2022-09-17T01:30:19;2.60;;;2.10;;
17482;SDS011;8858;52.308;20.994;2022-09-17T01:33:13;2.20;;;2.00;;
17482;SDS011;8858;52.308;20.994;2022-09-17T01:35:51;4.20;;;2.00;;
17482;SDS011;8858;52.308;20.994;2022-09-17T01:38:31;2.80;;;2.10;;
17482;SDS011;8858;52.308;20.994;2022-09-17T01:41:05;2.93;;;2.33;;
17482;SDS011;8858;52.308;20.994;2022-09-17T01:43:41;4.20;;;2.07;;
17482;SDS011;8858;52.308;20.994;2022-09-17T01:46:14;3.00;;;2.43;;
17482;SDS011;8858;52.308;20.994;2022-09-17T01:48:47;3.50;;;2.60;;
17482;SDS011;8858;52.308;20.994;2022-09-17T01:51:20;5.07;;;2.17;;
17482;SDS011;8858;52.308;20.994;2022-09-17T01:53:52;3.60;;;2.13;;
17482;SDS011;8858;52.308;20.994;2022-09-17T01:56:25;2.63;;;2.03;;
17482;SDS011;8858;52.308;20.994;2022-09-17T01:58:59;1.97;;;1.83;;
17482;SDS011;8858;52.308;20.994;2022-09-17T02:01:32;3.23;;;2.10;;
17482;SDS011;8858;52.308;20.994;2022-09-17T02:04:05;4.00;;;2.23;;
17482;SDS011;8858;52.308;20.994;2022-09-17T02:06:39;2.57;;;2.13;;
17482;SDS011;8858;52.308;20.994;2022-09-17T02:09:12;3.73;;;1.90;;
17482;SDS011;8858;52.308;20.994;2022-09-17T02:11:49;3.90;;;2.10;;
17482;SDS011;8858;52.308;20.994;2022-09-17T02:14:22;2.90;;;1.93;;
17482;SDS011;8858;52.308;20.994;2022-09-17T02:16:59;3.10;;;1.90;;
17482;SDS011;8858;52.308;20.994;2022-09-17T02:19:33;3.23;;;2.10;;
17482;SDS011;8858;52.308;20.994;2022-09-17T02:22:05;3.17;;;2.10;;
17482;SDS011;8858;52.308;20.994;2022-09-17T02:24:43;4.97;;;2.10;;
17482;SDS011;8858;52.308;20.994;2022-09-17T02:27:21;2.03;;;1.80;;
17482;SDS011;8858;52.308;20.994;2022-09-17T02:29:54;2.07;;;1.87;;
17482;SDS011;8858;52.308;20.994;2022-09-17T02:32:24;2.10;;;1.90;;
17482;SDS011;8858;52.308;20.994;2022-09-17T02:34:52;2.80;;;2.10;;
17482;SDS011;8858;52.308;20.994;2022-09-17T02:37:21;2.70;;;2.10;;
17482;SDS011;8858;52.308;20.994;2022-09-17T02:39:53;4.47;;;1.97;;
17482;SDS011;8858;52.308;20.994;2022-09-17T02:42:25;3.07;;;2.00;;
17482;SDS011;8858;52.308;20.994;2022-09-17T02:45:05;4.53;;;2.00;;
17482;SDS011;8858;52.308;20.994;2022-09-17T02:47:50;5.53;;;2.10;;
17482;SDS011;8858;52.308;20.994;2022-09-17T02:50:39;2.83;;;2.10;;
17482;SDS011;8858;52.308;20.994;2022-09-17T02:53:23;2.10;;;1.90;;
17482;SDS011;8858;52.308;20.994;2022-09-17T02:56:08;3.73;;;2.10;;
17482;SDS011;8858;52.308;20.994;2022-09-17T02:58:44;4.20;;;2.10;;
17482;SDS011;8858;52.308;20.994;2022-09-17T03:01:21;3.63;;;2.07;;
17482;SDS011;8858;52.308;20.994;2022-09-17T03:03:57;3.63;;;2.00;;
17482;SDS011;8858;52.308;20.994;2022-09-17T03:06:28;3.10;;;2.10;;
17482;SDS011;8858;52.308;20.994;2022-09-17T03:09:01;2.60;;;2.03;;
17482;SDS011;8858;52.308;20.994;2022-09-17T03:11:30;3.57;;;2.00;;
17482;SDS011;8858;52.308;20.994;2022-09-17T03:13:59;3.10;;;1.90;;
17482;SDS011;8858;52.308;20.994;2022-09-17T03:16:27;4.63;;;2.20;;
17482;SDS011;8858;52.308;20.994;2022-09-17T03:18:58;2.03;;;1.80;;
17482;SDS011;8858;52.308;20.994;2022-09-17T03:21:28;4.77;;;2.03;;
17482;SDS011;8858;52.308;20.994;2022-09-17T03:23:57;3.03;;;2.20;;
17482;SDS011;8858;52.308;20.994;2022-09-17T03:26:26;2.53;;;1.87;;
17482;SDS011;8858;52.308;20.994;2022-09-17T03:28:56;2.17;;;2.03;;
17482;SDS011;8858;52.308;20.994;2022-09-17T03:31:24;2.63;;;2.20;;
17482;SDS011;8858;52.308;20.994;2022-09-17T03:33:53;3.37;;;1.93;;
17482;SDS011;8858;52.308;20.994;2022-09-17T03:36:26;4.10;;;1.90;;
17482;SDS011;8858;52.308;20.994;2022-09-17T03:38:55;5.10;;;2.07;;
17482;SDS011;8858;52.308;20.994;2022-09-17T03:41:24;3.00;;;2.00;;
17482;SDS011;8858;52.308;20.994;2022-09-17T03:43:53;3.47;;;2.00;;
17482;SDS011;8858;52.308;20.994;2022-09-17T03:46:21;5.77;;;2.13;;
17482;SDS011;8858;52.308;20.994;2022-09-17T03:48:53;4.17;;;2.30;;
17482;SDS011;8858;52.308;20.994;2022-09-17T03:51:22;3.20;;;2.30;;
17482;SDS011;8858;52.308;20.994;2022-09-17T03:53:53;2.20;;;2.00;;
17482;SDS011;8858;52.308;20.994;2022-09-17T03:56:21;4.93;;;2.30;;
17482;SDS011;8858;52.308;20.994;2022-09-17T03:58:55;5.83;;;2.47;;
17482;SDS011;8858;52.308;20.994;2022-09-17T04:01:25;4.73;;;2.07;;
17482;SDS011;8858;52.308;20.994;2022-09-17T04:03:58;4.77;;;2.43;;
17482;SDS011;8858;52.308;20.994;2022-09-17T04:06:26;2.87;;;2.23;;
17482;SDS011;8858;52.308;20.994;2022-09-17T04:08:55;7.40;;;2.73;;
17482;SDS011;8858;52.308;20.994;2022-09-17T04:11:26;4.53;;;2.20;;
17482;SDS011;8858;52.308;20.994;2022-09-17T04:13:54;2.40;;;2.20;;
17482;SDS011;8858;52.308;20.994;2022-09-17T04:16:22;9.27;;;6.07;;
17482;SDS011;8858;52.308;20.994;2022-09-17T04:18:51;4.80;;;2.83;;
17482;SDS011;8858;52.308;20.994;2022-09-17T04:21:21;3.07;;;2.03;;
17482;SDS011;8858;52.308;20.994;2022-09-17T04:23:49;2.53;;;1.93;;
17482;SDS011;8858;52.308;20.994;2022-09-17T04:26:19;3.90;;;2.20;;
17482;SDS011;8858;52.308;20.994;2022-09-17T04:28:48;5.33;;;2.30;;
17482;SDS011;8858;52.308;20.994;2022-09-17T04:31:16;3.97;;;2.30;;
17482;SDS011;8858;52.308;20.994;2022-09-17T04:33:45;2.73;;;2.30;;
17482;SDS011;8858;52.308;20.994;2022-09-17T04:36:17;4.90;;;2.07;;
17482;SDS011;8858;52.308;20.994;2022-09-17T04:38:46;6.50;;;2.47;;
17482;SDS011;8858;52.308;20.994;2022-09-17T04:41:16;3.73;;;2.10;;
17482;SDS011;8858;52.308;20.994;2022-09-17T04:43:45;2.57;;;1.93;;
17482;SDS011;8858;52.308;20.994;2022-09-17T04:46:17;2.73;;;2.17;;
17482;SDS011;8858;52.308;20.994;2022-09-17T04:48:45;4.50;;;2.47;;
17482;SDS011;8858;52.308;20.994;2022-09-17T04:51:13;1.93;;;1.80;;
17482;SDS011;8858;52.308;20.994;2022-09-17T04:53:42;2.70;;;2.30;;
17482;SDS011;8858;52.308;20.994;2022-09-17T04:56:11;5.10;;;4.00;;
17482;SDS011;8858;52.308;20.994;2022-09-17T04:58:40;6.73;;;2.40;;
17482;SDS011;8858;52.308;20.994;2022-09-17T05:01:10;3.37;;;2.20;;
17482;SDS011;8858;52.308;20.994;2022-09-17T05:03:44;3.57;;;2.23;;
17482;SDS011;8858;52.308;20.994;2022-09-17T05:06:12;4.63;;;2.27;;
17482;SDS011;8858;52.308;20.994;2022-09-17T05:08:42;5.17;;;2.30;;
17482;SDS011;8858;52.308;20.994;2022-09-17T05:11:10;2.30;;;2.10;;
17482;SDS011;8858;52.308;20.994;2022-09-17T05:13:41;3.50;;;2.30;;
17482;SDS011;8858;52.308;20.994;2022-09-17T05:16:11;4.87;;;2.40;;
17482;SDS011;8858;52.308;20.994;2022-09-17T05:18:39;3.47;;;2.30;;
17482;SDS011;8858;52.308;20.994;2022-09-17T05:21:08;2.70;;;2.50;;
17482;SDS011;8858;52.308;20.994;2022-09-17T05:23:36;5.87;;;2.40;;
17482;SDS011;8858;52.308;20.994;2022-09-17T05:26:08;4.37;;;2.23;;
17482;SDS011;8858;52.308;20.994;2022-09-17T05:28:37;2.87;;;2.20;;
17482;SDS011;8858;52.308;20.994;2022-09-17T05:31:07;4.10;;;2.50;;
17482;SDS011;8858;52.308;20.994;2022-09-17T05:33:37;4.30;;;2.30;;
17482;SDS011;8858;52.308;20.994;2022-09-17T05:36:05;3.53;;;2.50;;
17482;SDS011;8858;52.308;20.994;2022-09-17T05:38:35;4.73;;;2.57;;
17482;SDS011;8858;52.308;20.994;2022-09-17T05:41:05;3.77;;;2.30;;
17482;SDS011;8858;52.308;20.994;2022-09-17T05:43:34;4.80;;;2.60;;
17482;SDS011;8858;52.308;20.994;2022-09-17T05:46:02;2.43;;;2.10;;
17482;SDS011;8858;52.308;20.994;2022-09-17T05:48:32;3.83;;;2.37;;
17482;SDS011;8858;52.308;20.994;2022-09-17T05:51:05;3.63;;;2.30;;
17482;SDS011;8858;52.308;20.994;2022-09-17T05:53:33;6.33;;;2.30;;
17482;SDS011;8858;52.308;20.994;2022-09-17T05:56:02;3.17;;;2.00;;
17482;SDS011;8858;52.308;20.994;2022-09-17T05:58:31;3.50;;;2.20;;
17482;SDS011;8858;52.308;20.994;2022-09-17T06:01:01;4.23;;;1.83;;
17482;SDS011;8858;52.308;20.994;2022-09-17T06:03:31;6.37;;;2.20;;
17482;SDS011;8858;52.308;20.994;2022-09-17T06:06:03;4.00;;;2.20;;
17482;SDS011;8858;52.308;20.994;2022-09-17T06:08:33;2.47;;;2.00;;
17482;SDS011;8858;52.308;20.994;2022-09-17T06:11:02;2.10;;;1.90;;
17482;SDS011;8858;52.308;20.994;2022-09-17T06:13:32;3.23;;;2.47;;
17482;SDS011;8858;52.308;20.994;2022-09-17T06:16:01;3.40;;;2.30;;
17482;SDS011;8858;52.308;20.994;2022-09-17T06:18:30;2.73;;;2.00;;
17482;SDS011;8858;52.308;20.994;2022-09-17T06:21:00;2.70;;;1.97;;
17482;SDS011;8858;52.308;20.994;2022-09-17T06:23:32;4.33;;;2.00;;
17482;SDS011;8858;52.308;20.994;2022-09-17T06:26:04;3.43;;;1.60;;
17482;SDS011;8858;52.308;20.994;2022-09-17T06:28:32;2.20;;;1.73;;
17482;SDS011;8858;52.308;20.994;2022-09-17T06:31:07;5.07;;;2.03;;
17482;SDS011;8858;52.308;20.994;2022-09-17T06:33:37;7.27;;;2.27;;
17482;SDS011;8858;52.308;20.994;2022-09-17T06:36:06;4.40;;;2.30;;
17482;SDS011;8858;52.308;20.994;2022-09-17T06:38:43;9.37;;;2.77;;
17482;SDS011;8858;52.308;20.994;2022-09-17T06:41:14;4.77;;;2.27;;
17482;SDS011;8858;52.308;20.994;2022-09-17T06:43:42;6.90;;;2.47;;
17482;SDS011;8858;52.308;20.994;2022-09-17T06:46:10;6.60;;;3.03;;
17482;SDS011;8858;52.308;20.994;2022-09-17T06:48:38;5.60;;;2.57;;
17482;SDS011;8858;52.308;20.994;2022-09-17T06:51:10;4.93;;;2.00;;
17482;SDS011;8858;52.308;20.994;2022-09-17T06:53:44;5.00;;;2.23;;
17482;SDS011;8858;52.308;20.994;2022-09-17T06:56:13;6.20;;;2.30;;
17482;SDS011;8858;52.308;20.994;2022-09-17T06:58:41;7.43;;;2.70;;
17482;SDS011;8858;52.308;20.994;2022-09-17T07:01:11;5.47;;;2.43;;
17482;SDS011;8858;52.308;20.994;2022-09-17T07:03:41;4.60;;;2.23;;
17482;SDS011;8858;52.308;20.994;2022-09-17T07:06:10;4.03;;;2.10;;
17482;SDS011;8858;52.308;20.994;2022-09-17T07:08:38;3.83;;;2.00;;
17482;SDS011;8858;52.308;20.994;2022-09-17T07:11:08;3.40;;;1.93;;
17482;SDS011;8858;52.308;20.994;2022-09-17T07:13:36;8.03;;;2.20;;
17482;SDS011;8858;52.308;20.994;2022-09-17T07:16:08;5.17;;;2.37;;
17482;SDS011;8858;52.308;20.994;2022-09-17T07:18:39;7.43;;;2.60;;
17482;SDS011;8858;52.308;20.994;2022-09-17T07:21:08;5.47;;;2.00;;
17482;SDS011;8858;52.308;20.994;2022-09-17T07:23:37;4.37;;;2.17;;
17482;SDS011;8858;52.308;20.994;2022-09-17T07:26:11;3.57;;;2.33;;
17482;SDS011;8858;52.308;20.994;2022-09-17T07:28:41;4.17;;;2.40;;
17482;SDS011;8858;52.308;20.994;2022-09-17T07:31:10;2.97;;;2.40;;
17482;SDS011;8858;52.308;20.994;2022-09-17T07:33:42;4.67;;;2.43;;
17482;SDS011;8858;52.308;20.994;2022-09-17T07:36:15;4.33;;;2.73;;
17482;SDS011;8858;52.308;20.994;2022-09-17T07:38:44;5.03;;;3.00;;
17482;SDS011;8858;52.308;20.994;2022-09-17T07:41:15;3.20;;;2.60;;
17482;SDS011;8858;52.308;20.994;2022-09-17T07:43:44;3.10;;;2.80;;
17482;SDS011;8858;52.308;20.994;2022-09-17T07:46:12;4.97;;;2.90;;
17482;SDS011;8858;52.308;20.994;2022-09-17T07:48:43;2.90;;;2.60;;
17482;SDS011;8858;52.308;20.994;2022-09-17T07:51:13;8.20;;;2.77;;
17482;SDS011;8858;52.308;20.994;2022-09-17T07:53:43;6.43;;;2.80;;
17482;SDS011;8858;52.308;20.994;2022-09-17T07:56:14;3.07;;;2.23;;
17482;SDS011;8858;52.308;20.994;2022-09-17T07:58:42;6.90;;;2.73;;
17482;SDS011;8858;52.308;20.994;2022-09-17T08:01:12;4.00;;;2.50;;
17482;SDS011;8858;52.308;20.994;2022-09-17T08:03:46;6.00;;;2.83;;
17482;SDS011;8858;52.308;20.994;2022-09-17T08:06:20;4.37;;;2.53;;
17482;SDS011;8858;52.308;20.994;2022-09-17T08:08:54;3.00;;;2.57;;
17482;SDS011;8858;52.308;20.994;2022-09-17T08:11:29;5.50;;;3.10;;
17482;SDS011;8858;52.308;20.994;2022-09-17T08:14:21;3.43;;;3.00;;
17482;SDS011;8858;52.308;20.994;2022-09-17T08:16:58;3.50;;;2.73;;
17482;SDS011;8858;52.308;20.994;2022-09-17T08:19:29;2.77;;;2.30;;
17482;SDS011;8858;52.308;20.994;2022-09-17T08:21:58;3.67;;;2.43;;
17482;SDS011;8858;52.308;20.994;2022-09-17T08:24:27;6.10;;;3.13;;
17482;SDS011;8858;52.308;20.994;2022-09-17T08:26:56;9.00;;;3.50;;
17482;SDS011;8858;52.308;20.994;2022-09-17T08:29:27;3.13;;;2.80;;
17482;SDS011;8858;52.308;20.994;2022-09-17T08:32:00;4.80;;;3.10;;
17482;SDS011;8858;52.308;20.994;2022-09-17T08:34:30;5.80;;;2.97;;
17482;SDS011;8858;52.308;20.994;2022-09-17T08:36:59;5.40;;;2.73;;
17482;SDS011;8858;52.308;20.994;2022-09-17T08:39:28;3.10;;;2.40;;
17482;SDS011;8858;52.308;20.994;2022-09-17T08:42:02;6.40;;;3.00;;
17482;SDS011;8858;52.308;20.994;2022-09-17T08:44:37;3.10;;;2.20;;
17482;SDS011;8858;52.308;20.994;2022-09-17T08:47:11;3.50;;;2.10;;
17482;SDS011;8858;52.308;20.994;2022-09-17T08:49:47;3.37;;;2.20;;
17482;SDS011;8858;52.308;20.994;2022-09-17T08:55:31;3.40;;;1.83;;
17482;SDS011;8858;52.308;20.994;2022-09-17T08:58:16;6.03;;;2.40;;
17482;SDS011;8858;52.308;20.994;2022-09-17T09:01:13;3.77;;;2.40;;
17482;SDS011;8858;52.308;20.994;2022-09-17T09:03:57;3.30;;;2.20;;
17482;SDS011;8858;52.308;20.994;2022-09-17T09:06:35;3.93;;;2.00;;
17482;SDS011;8858;52.308;20.994;2022-09-17T09:09:09;2.20;;;1.97;;
17482;SDS011;8858;52.308;20.994;2022-09-17T09:11:41;4.00;;;2.30;;
17482;SDS011;8858;52.308;20.994;2022-09-17T09:14:19;3.50;;;1.90;;
17482;SDS011;8858;52.308;20.994;2022-09-17T09:16:51;2.23;;;2.00;;
17482;SDS011;8858;52.308;20.994;2022-09-17T09:19:22;4.00;;;1.80;;
17482;SDS011;8858;52.308;20.994;2022-09-17T09:21:59;4.33;;;1.70;;
17482;SDS011;8858;52.308;20.994;2022-09-17T09:24:33;4.77;;;1.63;;
17482;SDS011;8858;52.308;20.994;2022-09-17T09:27:14;3.50;;;1.80;;
17482;SDS011;8858;52.308;20.994;2022-09-17T09:29:50;2.33;;;1.80;;
17482;SDS011;8858;52.308;20.994;2022-09-17T09:32:34;1.63;;;1.50;;
17482;SDS011;8858;52.308;20.994;2022-09-17T09:35:15;2.60;;;1.77;;
17482;SDS011;8858;52.308;20.994;2022-09-17T09:37:49;4.30;;;1.73;;
17482;SDS011;8858;52.308;20.994;2022-09-17T09:40:25;2.03;;;1.50;;
17482;SDS011;8858;52.308;20.994;2022-09-17T09:43:10;1.40;;;1.30;;
17482;SDS011;8858;52.308;20.994;2022-09-17T09:45:50;1.93;;;1.43;;
17482;SDS011;8858;52.308;20.994;2022-09-17T09:48:30;3.23;;;1.97;;
17482;SDS011;8858;52.308;20.994;2022-09-17T09:51:10;1.70;;;1.60;;
17482;SDS011;8858;52.308;20.994;2022-09-17T09:53:52;2.90;;;1.70;;
17482;SDS011;8858;52.308;20.994;2022-09-17T09:56:51;3.77;;;1.80;;
17482;SDS011;8858;52.308;20.994;2022-09-17T09:59:23;1.70;;;1.60;;
17482;SDS011;8858;52.308;20.994;2022-09-17T10:01:54;2.20;;;1.40;;
17482;SDS011;8858;52.308;20.994;2022-09-17T10:04:24;4.37;;;1.50;;
17482;SDS011;8858;52.308;20.994;2022-09-17T10:07:01;2.00;;;1.33;;
17482;SDS011;8858;52.308;20.994;2022-09-17T10:09:32;3.00;;;1.50;;
17482;SDS011;8858;52.308;20.994;2022-09-17T10:12:04;2.70;;;1.50;;
17482;SDS011;8858;52.308;20.994;2022-09-17T10:14:43;2.47;;;1.80;;
17482;SDS011;8858;52.308;20.994;2022-09-17T10:17:16;2.57;;;2.10;;
17482;SDS011;8858;52.308;20.994;2022-09-17T10:22:48;4.73;;;2.73;;
17482;SDS011;8858;52.308;20.994;2022-09-17T10:25:26;4.07;;;2.50;;
17482;SDS011;8858;52.308;20.994;2022-09-17T10:27:57;3.53;;;2.30;;
17482;SDS011;8858;52.308;20.994;2022-09-17T10:30:28;5.57;;;2.43;;
17482;SDS011;8858;52.308;20.994;2022-09-17T10:33:16;4.07;;;2.37;;
17482;SDS011;8858;52.308;20.994;2022-09-17T10:35:55;3.90;;;1.90;;
17482;SDS011;8858;52.308;20.994;2022-09-17T10:38:32;4.67;;;1.80;;
17482;SDS011;8858;52.308;20.994;2022-09-17T10:41:10;6.00;;;1.70;;
17482;SDS011;8858;52.308;20.994;2022-09-17T10:43:41;2.93;;;1.83;;
17482;SDS011;8858;52.308;20.994;2022-09-17T10:46:13;2.97;;;1.70;;
17482;SDS011;8858;52.308;20.994;2022-09-17T10:48:52;1.83;;;1.73;;
17482;SDS011;8858;52.308;20.994;2022-09-17T10:51:25;2.40;;;2.00;;
17482;SDS011;8858;52.308;20.994;2022-09-17T10:54:07;1.50;;;1.40;;
17482;SDS011;8858;52.308;20.994;2022-09-17T10:56:47;2.37;;;2.00;;
17482;SDS011;8858;52.308;20.994;2022-09-17T10:59:25;2.17;;;1.40;;
17482;SDS011;8858;52.308;20.994;2022-09-17T11:02:25;2.03;;;1.30;;
17482;SDS011;8858;52.308;20.994;2022-09-17T11:05:22;1.90;;;1.20;;
17482;SDS011;8858;52.308;20.994;2022-09-17T11:08:04;2.53;;;1.27;;
17482;SDS011;8858;52.308;20.994;2022-09-17T11:10:42;0.97;;;0.97;;
17482;SDS011;8858;52.308;20.994;2022-09-17T11:13:21;2.70;;;1.03;;
17482;SDS011;8858;52.308;20.994;2022-09-17T11:16:04;4.00;;;3.17;;
17482;SDS011;8858;52.308;20.994;2022-09-17T11:18:44;1.17;;;1.07;;
17482;SDS011;8858;52.308;20.994;2022-09-17T11:21:22;1.90;;;1.00;;
17482;SDS011;8858;52.308;20.994;2022-09-17T11:24:18;2.10;;;1.00;;
17482;SDS011;8858;52.308;20.994;2022-09-17T11:27:02;0.70;;;0.70;;
17482;SDS011;8858;52.308;20.994;2022-09-17T11:29:41;0.83;;;0.80;;
17482;SDS011;8858;52.308;20.994;2022-09-17T11:32:25;0.70;;;0.70;;
17482;SDS011;8858;52.308;20.994;2022-09-17T11:35:13;4.10;;;1.20;;
17482;SDS011;8858;52.308;20.994;2022-09-17T11:37:49;1.73;;;1.30;;
17482;SDS011;8858;52.308;20.994;2022-09-17T11:40:27;3.13;;;1.43;;
17482;SDS011;8858;52.308;20.994;2022-09-17T11:43:06;0.80;;;0.80;;
17482;SDS011;8858;52.308;20.994;2022-09-17T11:45:46;1.20;;;1.10;;
17482;SDS011;8858;52.308;20.994;2022-09-17T11:48:24;2.30;;;1.40;;
17482;SDS011;8858;52.308;20.994;2022-09-17T11:51:01;1.40;;;1.30;;
17482;SDS011;8858;52.308;20.994;2022-09-17T11:53:46;1.23;;;1.13;;
17482;SDS011;8858;52.308;20.994;2022-09-17T11:56:19;1.03;;;1.03;;
17482;SDS011;8858;52.308;20.994;2022-09-17T11:58:53;4.77;;;1.20;;
17482;SDS011;8858;52.308;20.994;2022-09-17T12:01:26;4.03;;;1.60;;
17482;SDS011;8858;52.308;20.994;2022-09-17T12:04:06;2.70;;;1.57;;
17482;SDS011;8858;52.308;20.994;2022-09-17T12:06:56;1.50;;;1.10;;
17482;SDS011;8858;52.308;20.994;2022-09-17T12:09:31;1.93;;;1.33;;
17482;SDS011;8858;52.308;20.994;2022-09-17T12:12:04;0.97;;;0.97;;
17482;SDS011;8858;52.308;20.994;2022-09-17T12:14:57;2.33;;;1.00;;
17482;SDS011;8858;52.308;20.994;2022-09-17T12:17:37;1.03;;;0.87;;
17482;SDS011;8858;52.308;20.994;2022-09-17T12:20:12;2.23;;;1.07;;
17482;SDS011;8858;52.308;20.994;2022-09-17T12:22:49;0.97;;;0.97;;
17482;SDS011;8858;52.308;20.994;2022-09-17T12:25:20;1.17;;;1.10;;
17482;SDS011;8858;52.308;20.994;2022-09-17T12:27:50;2.43;;;1.20;;
17482;SDS011;8858;52.308;20.994;2022-09-17T12:30:23;7.40;;;1.20;;
17482;SDS011;8858;52.308;20.994;2022-09-17T12:33:14;1.10;;;1.00;;
17482;SDS011;8858;52.308;20.994;2022-09-17T12:36:02;1.37;;;1.27;;
17482;SDS011;8858;52.308;20.994;2022-09-17T12:38:59;2.17;;;1.80;;
17482;SDS011;8858;52.308;20.994;2022-09-17T12:41:44;3.27;;;1.87;;
17482;SDS011;8858;52.308;20.994;2022-09-17T12:44:34;1.70;;;1.60;;
17482;SDS011;8858;52.308;20.994;2022-09-17T12:50:25;5.83;;;1.90;;
17482;SDS011;8858;52.308;20.994;2022-09-17T12:53:08;2.40;;;1.40;;
17482;SDS011;8858;52.308;20.994;2022-09-17T12:55:49;3.40;;;2.03;;
17482;SDS011;8858;52.308;20.994;2022-09-17T12:58:43;1.97;;;1.80;;
17482;SDS011;8858;52.308;20.994;2022-09-17T13:01:31;1.50;;;1.40;;
17482;SDS011;8858;52.308;20.994;2022-09-17T13:04:15;2.17;;;1.70;;
17482;SDS011;8858;52.308;20.994;2022-09-17T13:10:37;1.80;;;1.50;;
17482;SDS011;8858;52.308;20.994;2022-09-17T13:13:22;2.70;;;1.80;;
17482;SDS011;8858;52.308;20.994;2022-09-17T13:16:02;2.97;;;1.60;;
17482;SDS011;8858;52.308;20.994;2022-09-17T13:18:43;5.20;;;2.40;;
17482;SDS011;8858;52.308;20.994;2022-09-17T13:21:42;5.60;;;2.37;;
17482;SDS011;8858;52.308;20.994;2022-09-17T13:24:17;2.97;;;1.90;;
17482;SDS011;8858;52.308;20.994;2022-09-17T13:26:47;3.00;;;1.80;;
17482;SDS011;8858;52.308;20.994;2022-09-17T13:32:45;3.77;;;2.33;;
17482;SDS011;8858;52.308;20.994;2022-09-17T13:38:13;1.70;;;1.60;;
17482;SDS011;8858;52.308;20.994;2022-09-17T13:40:48;2.63;;;1.60;;
17482;SDS011;8858;52.308;20.994;2022-09-17T13:43:18;1.70;;;1.60;;
17482;SDS011;8858;52.308;20.994;2022-09-17T13:46:05;2.10;;;1.47;;
17482;SDS011;8858;52.308;20.994;2022-09-17T13:48:48;1.70;;;1.50;;
17482;SDS011;8858;52.308;20.994;2022-09-17T13:51:41;2.43;;;1.90;;
17482;SDS011;8858;52.308;20.994;2022-09-17T13:54:18;2.17;;;1.77;;
17482;SDS011;8858;52.308;20.994;2022-09-17T13:57:01;3.13;;;1.93;;
17482;SDS011;8858;52.308;20.994;2022-09-17T13:59:37;2.57;;;1.80;;
17482;SDS011;8858;52.308;20.994;2022-09-17T14:02:26;2.23;;;2.03;;
17482;SDS011;8858;52.308;20.994;2022-09-17T14:08:06;7.77;;;2.53;;
17482;SDS011;8858;52.308;20.994;2022-09-17T14:10:53;2.20;;;1.90;;
17482;SDS011;8858;52.308;20.994;2022-09-17T14:13:23;2.90;;;1.97;;
17482;SDS011;8858;52.308;20.994;2022-09-17T14:19:25;2.13;;;2.00;;
17482;SDS011;8858;52.308;20.994;2022-09-17T14:22:12;3.30;;;2.13;;
17482;SDS011;8858;52.308;20.994;2022-09-17T14:24:45;2.43;;;2.10;;
17482;SDS011;8858;52.308;20.994;2022-09-17T14:27:33;4.40;;;2.23;;
17482;SDS011;8858;52.308;20.994;2022-09-17T14:30:16;2.60;;;2.30;;
17482;SDS011;8858;52.308;20.994;2022-09-17T14:32:47;5.37;;;1.80;;
17482;SDS011;8858;52.308;20.994;2022-09-17T14:35:25;1.90;;;1.80;;
17482;SDS011;8858;52.308;20.994;2022-09-17T14:37:59;3.60;;;2.00;;
17482;SDS011;8858;52.308;20.994;2022-09-17T14:40:32;1.70;;;1.60;;
17482;SDS011;8858;52.308;20.994;2022-09-17T14:43:03;2.13;;;1.70;;
17482;SDS011;8858;52.308;20.994;2022-09-17T14:45:32;2.63;;;1.70;;
17482;SDS011;8858;52.308;20.994;2022-09-17T14:48:31;1.93;;;1.73;;
17482;SDS011;8858;52.308;20.994;2022-09-17T14:51:12;1.80;;;1.70;;
17482;SDS011;8858;52.308;20.994;2022-09-17T14:56:58;2.00;;;1.90;;
17482;SDS011;8858;52.308;20.994;2022-09-17T14:59:30;3.13;;;1.90;;
17482;SDS011;8858;52.308;20.994;2022-09-17T15:02:28;1.90;;;1.70;;
17482;SDS011;8858;52.308;20.994;2022-09-17T15:05:14;1.97;;;1.87;;
17482;SDS011;8858;52.308;20.994;2022-09-17T15:07:45;1.90;;;1.80;;
17482;SDS011;8858;52.308;20.994;2022-09-17T15:10:16;2.43;;;2.27;;
17482;SDS011;8858;52.308;20.994;2022-09-17T15:12:49;3.57;;;1.87;;
17482;SDS011;8858;52.308;20.994;2022-09-17T15:15:22;2.13;;;1.97;;
17482;SDS011;8858;52.308;20.994;2022-09-17T15:17:56;2.67;;;2.03;;
17482;SDS011;8858;52.308;20.994;2022-09-17T15:20:28;2.27;;;2.07;;
17482;SDS011;8858;52.308;20.994;2022-09-17T15:23:01;2.00;;;1.90;;
17482;SDS011;8858;52.308;20.994;2022-09-17T15:25:37;3.33;;;2.53;;
17482;SDS011;8858;52.308;20.994;2022-09-17T15:28:13;2.80;;;2.27;;
17482;SDS011;8858;52.308;20.994;2022-09-17T15:30:50;2.57;;;2.20;;
17482;SDS011;8858;52.308;20.994;2022-09-17T15:33:21;3.57;;;2.50;;
17482;SDS011;8858;52.308;20.994;2022-09-17T15:35:59;4.43;;;2.40;;
17482;SDS011;8858;52.308;20.994;2022-09-17T15:38:35;2.90;;;2.63;;
17482;SDS011;8858;52.308;20.994;2022-09-17T15:44:06;2.47;;;2.37;;
17482;SDS011;8858;52.308;20.994;2022-09-17T15:47:17;3.83;;;2.93;;
17482;SDS011;8858;52.308;20.994;2022-09-17T15:50:09;5.07;;;3.00;;
17482;SDS011;8858;52.308;20.994;2022-09-17T15:52:43;3.17;;;2.90;;
17482;SDS011;8858;52.308;20.994;2022-09-17T15:55:28;3.10;;;2.90;;
17482;SDS011;8858;52.308;20.994;2022-09-17T15:58:03;5.47;;;3.17;;
17482;SDS011;8858;52.308;20.994;2022-09-17T16:00:48;3.20;;;2.93;;
17482;SDS011;8858;52.308;20.994;2022-09-17T16:04:17;3.27;;;3.03;;
17482;SDS011;8858;52.308;20.994;2022-09-17T16:06:48;3.60;;;3.30;;
17482;SDS011;8858;52.308;20.994;2022-09-17T16:09:37;4.43;;;3.37;;
17482;SDS011;8858;52.308;20.994;2022-09-17T16:12:15;4.23;;;3.83;;